sensor_id;sensor_type;location;lat;lon;timestamp;temperature;humidity
73570;SHT30;61850;54.980;73.298;2022-12-29T00:00:51;-14.35;88.01
73570;SHT30;61850;54.980;73.298;2022-12-29T00:03:17;-14.29;87.62
73570;SHT30;61850;54.980;73.298;2022-12-29T00:05:54;-14.39;87.29
73570;SHT30;61850;54.980;73.298;2022-12-29T00:08:29;-14.36;87.68
73570;SHT30;61850;54.980;73.298;2022-12-29T00:11:08;-14.39;88.26
73570;SHT30;61850;54.980;73.298;2022-12-29T00:13:40;-14.42;88.19
73570;SHT30;61850;54.980;73.298;2022-12-29T00:16:26;-14.36;88.07
73570;SHT30;61850;54.980;73.298;2022-12-29T00:19:02;-14.34;88.08
73570;SHT30;61850;54.980;73.298;2022-12-29T00:21:29;-14.29;88.64
73570;SHT30;61850;54.980;73.298;2022-12-29T00:24:23;-14.27;88.56
73570;SHT30;61850;54.980;73.298;2022-12-29T00:26:58;-14.31;88.79
73570;SHT30;61850;54.980;73.298;2022-12-29T00:29:54;-14.25;88.71
73570;SHT30;61850;54.980;73.298;2022-12-29T00:32:39;-14.28;88.49
73570;SHT30;61850;54.980;73.298;2022-12-29T00:35:31;-14.20;88.33
73570;SHT30;61850;54.980;73.298;2022-12-29T00:38:01;-14.10;87.84
73570;SHT30;61850;54.980;73.298;2022-12-29T00:40:48;-14.14;88.16
73570;SHT30;61850;54.980;73.298;2022-12-29T00:43:33;-14.01;88.20
73570;SHT30;61850;54.980;73.298;2022-12-29T00:46:18;-14.08;87.97
73570;SHT30;61850;54.980;73.298;2022-12-29T00:48:45;-14.03;87.70
73570;SHT30;61850;54.980;73.298;2022-12-29T00:51:39;-14.03;87.55
73570;SHT30;61850;54.980;73.298;2022-12-29T00:54:05;-14.01;87.09
73570;SHT30;61850;54.980;73.298;2022-12-29T00:56:32;-13.94;87.00
73570;SHT30;61850;54.980;73.298;2022-12-29T00:59:00;-13.94;86.86
73570;SHT30;61850;54.980;73.298;2022-12-29T01:01:27;-13.94;86.67
73570;SHT30;61850;54.980;73.298;2022-12-29T01:03:56;-13.97;86.87
73570;SHT30;61850;54.980;73.298;2022-12-29T01:06:22;-13.97;87.27
73570;SHT30;61850;54.980;73.298;2022-12-29T01:08:48;-13.97;87.20
73570;SHT30;61850;54.980;73.298;2022-12-29T01:11:38;-13.97;87.13
73570;SHT30;61850;54.980;73.298;2022-12-29T01:14:05;-14.04;87.25
73570;SHT30;61850;54.980;73.298;2022-12-29T01:16:33;-14.07;86.60
73570;SHT30;61850;54.980;73.298;2022-12-29T01:19:04;-14.17;86.23
73570;SHT30;61850;54.980;73.298;2022-12-29T01:21:30;-14.15;85.13
73570;SHT30;61850;54.980;73.298;2022-12-29T01:24:01;-14.22;85.43
73570;SHT30;61850;54.980;73.298;2022-12-29T01:26:27;-14.36;84.56
73570;SHT30;61850;54.980;73.298;2022-12-29T01:28:53;-14.45;84.78
73570;SHT30;61850;54.980;73.298;2022-12-29T01:31:19;-14.70;84.15
73570;SHT30;61850;54.980;73.298;2022-12-29T01:33:45;-14.80;84.41
73570;SHT30;61850;54.980;73.298;2022-12-29T01:36:17;-15.00;84.10
73570;SHT30;61850;54.980;73.298;2022-12-29T01:38:53;-15.11;84.31
73570;SHT30;61850;54.980;73.298;2022-12-29T01:41:20;-15.18;84.52
73570;SHT30;61850;54.980;73.298;2022-12-29T01:46:22;-15.65;85.02
73570;SHT30;61850;54.980;73.298;2022-12-29T01:48:57;-15.76;85.42
73570;SHT30;61850;54.980;73.298;2022-12-29T01:51:40;-15.77;85.86
73570;SHT30;61850;54.980;73.298;2022-12-29T01:56:57;-15.73;86.01
73570;SHT30;61850;54.980;73.298;2022-12-29T01:59:26;-15.73;85.77
73570;SHT30;61850;54.980;73.298;2022-12-29T02:01:53;-15.77;85.83
73570;SHT30;61850;54.980;73.298;2022-12-29T02:04:20;-15.87;85.38
73570;SHT30;61850;54.980;73.298;2022-12-29T02:06:49;-15.90;85.50
73570;SHT30;61850;54.980;73.298;2022-12-29T02:09:18;-15.90;86.07
73570;SHT30;61850;54.980;73.298;2022-12-29T02:11:44;-15.88;85.88
73570;SHT30;61850;54.980;73.298;2022-12-29T02:14:11;-15.88;85.38
73570;SHT30;61850;54.980;73.298;2022-12-29T02:27:33;-15.87;85.18
73570;SHT30;61850;54.980;73.298;2022-12-29T02:45:49;-16.16;85.73
73570;SHT30;61850;54.980;73.298;2022-12-29T02:48:27;-16.14;85.50
73570;SHT30;61850;54.980;73.298;2022-12-29T02:53:24;-16.09;85.34
73570;SHT30;61850;54.980;73.298;2022-12-29T02:56:08;-15.95;85.11
73570;SHT30;61850;54.980;73.298;2022-12-29T02:58:35;-15.99;84.32
73570;SHT30;61850;54.980;73.298;2022-12-29T03:01:14;-15.93;84.24
73570;SHT30;61850;54.980;73.298;2022-12-29T03:06:21;-15.86;84.20
73570;SHT30;61850;54.980;73.298;2022-12-29T03:08:57;-15.86;84.02
73570;SHT30;61850;54.980;73.298;2022-12-29T03:11:27;-15.84;83.87
73570;SHT30;61850;54.980;73.298;2022-12-29T03:14:57;-15.78;83.92
73570;SHT30;61850;54.980;73.298;2022-12-29T03:17:44;-15.71;84.05
73570;SHT30;61850;54.980;73.298;2022-12-29T03:20:18;-15.67;83.94
73570;SHT30;61850;54.980;73.298;2022-12-29T03:22:49;-15.60;83.81
73570;SHT30;61850;54.980;73.298;2022-12-29T03:25:23;-15.62;83.24
73570;SHT30;61850;54.980;73.298;2022-12-29T03:28:08;-15.57;83.74
73570;SHT30;61850;54.980;73.298;2022-12-29T03:30:40;-15.56;83.67
73570;SHT30;61850;54.980;73.298;2022-12-29T03:33:09;-15.53;83.63
73570;SHT30;61850;54.980;73.298;2022-12-29T03:35:37;-15.53;83.47
73570;SHT30;61850;54.980;73.298;2022-12-29T03:38:11;-15.47;83.79
73570;SHT30;61850;54.980;73.298;2022-12-29T03:40:46;-15.49;83.69
73570;SHT30;61850;54.980;73.298;2022-12-29T03:43:16;-15.46;83.82
73570;SHT30;61850;54.980;73.298;2022-12-29T03:45:44;-15.40;83.74
73570;SHT30;61850;54.980;73.298;2022-12-29T03:48:22;-15.31;83.42
73570;SHT30;61850;54.980;73.298;2022-12-29T03:50:50;-15.34;83.48
73570;SHT30;61850;54.980;73.298;2022-12-29T03:53:17;-15.24;83.59
73570;SHT30;61850;54.980;73.298;2022-12-29T03:55:53;-15.25;83.60
73570;SHT30;61850;54.980;73.298;2022-12-29T03:58:20;-15.31;83.92
73570;SHT30;61850;54.980;73.298;2022-12-29T04:01:07;-15.24;84.30
73570;SHT30;61850;54.980;73.298;2022-12-29T04:03:41;-15.15;84.43
73570;SHT30;61850;54.980;73.298;2022-12-29T04:06:07;-15.08;83.89
73570;SHT30;61850;54.980;73.298;2022-12-29T04:08:51;-14.98;83.70
73570;SHT30;61850;54.980;73.298;2022-12-29T04:11:17;-15.01;83.30
73570;SHT30;61850;54.980;73.298;2022-12-29T04:13:43;-15.00;83.18
73570;SHT30;61850;54.980;73.298;2022-12-29T04:16:14;-14.94;82.81
73570;SHT30;61850;54.980;73.298;2022-12-29T04:18:41;-15.00;82.51
73570;SHT30;61850;54.980;73.298;2022-12-29T04:21:07;-14.98;82.50
73570;SHT30;61850;54.980;73.298;2022-12-29T04:23:40;-14.98;82.40
73570;SHT30;61850;54.980;73.298;2022-12-29T04:26:08;-15.01;82.26
73570;SHT30;61850;54.980;73.298;2022-12-29T04:28:52;-15.08;82.38
73570;SHT30;61850;54.980;73.298;2022-12-29T04:31:49;-15.04;82.52
73570;SHT30;61850;54.980;73.298;2022-12-29T04:34:17;-15.03;82.46
73570;SHT30;61850;54.980;73.298;2022-12-29T04:36:54;-15.05;82.55
73570;SHT30;61850;54.980;73.298;2022-12-29T04:39:22;-14.96;82.59
73570;SHT30;61850;54.980;73.298;2022-12-29T04:41:59;-15.00;82.58
73570;SHT30;61850;54.980;73.298;2022-12-29T04:44:30;-14.98;82.67
73570;SHT30;61850;54.980;73.298;2022-12-29T04:47:29;-14.86;82.44
73570;SHT30;61850;54.980;73.298;2022-12-29T04:50:19;-14.90;82.21
73570;SHT30;61850;54.980;73.298;2022-12-29T04:52:58;-14.76;82.32
73570;SHT30;61850;54.980;73.298;2022-12-29T04:55:25;-14.69;81.77
73570;SHT30;61850;54.980;73.298;2022-12-29T04:57:51;-14.62;81.74
73570;SHT30;61850;54.980;73.298;2022-12-29T05:00:23;-14.59;81.52
73570;SHT30;61850;54.980;73.298;2022-12-29T05:02:50;-14.46;81.49
73570;SHT30;61850;54.980;73.298;2022-12-29T05:05:17;-14.39;81.13
73570;SHT30;61850;54.980;73.298;2022-12-29T05:07:47;-14.36;80.93
73570;SHT30;61850;54.980;73.298;2022-12-29T05:10:13;-14.27;80.85
73570;SHT30;61850;54.980;73.298;2022-12-29T05:12:39;-14.31;80.82
73570;SHT30;61850;54.980;73.298;2022-12-29T05:15:06;-14.39;81.05
73570;SHT30;61850;54.980;73.298;2022-12-29T05:20:41;-14.36;82.26
73570;SHT30;61850;54.980;73.298;2022-12-29T05:23:17;-14.45;82.25
73570;SHT30;61850;54.980;73.298;2022-12-29T05:25:48;-14.60;82.59
73570;SHT30;61850;54.980;73.298;2022-12-29T05:28:28;-14.73;84.34
73570;SHT30;61850;54.980;73.298;2022-12-29T05:31:03;-14.73;84.76
73570;SHT30;61850;54.980;73.298;2022-12-29T05:33:30;-14.65;85.93
73570;SHT30;61850;54.980;73.298;2022-12-29T05:36:07;-14.56;86.24
73570;SHT30;61850;54.980;73.298;2022-12-29T05:38:35;-14.57;85.47
73570;SHT30;61850;54.980;73.298;2022-12-29T05:41:01;-14.52;84.69
73570;SHT30;61850;54.980;73.298;2022-12-29T05:44:02;-14.53;84.35
73570;SHT30;61850;54.980;73.298;2022-12-29T05:46:59;-14.55;84.75
73570;SHT30;61850;54.980;73.298;2022-12-29T05:49:43;-14.44;84.78
73570;SHT30;61850;54.980;73.298;2022-12-29T05:52:45;-14.44;85.07
73570;SHT30;61850;54.980;73.298;2022-12-29T05:55:12;-14.44;85.37
73570;SHT30;61850;54.980;73.298;2022-12-29T05:57:39;-14.39;85.24
73570;SHT30;61850;54.980;73.298;2022-12-29T06:00:13;-14.41;84.72
73570;SHT30;61850;54.980;73.298;2022-12-29T06:02:45;-14.32;84.65
73570;SHT30;61850;54.980;73.298;2022-12-29T06:05:12;-14.28;84.63
73570;SHT30;61850;54.980;73.298;2022-12-29T06:07:43;-14.20;84.75
73570;SHT30;61850;54.980;73.298;2022-12-29T06:10:13;-14.11;84.29
73570;SHT30;61850;54.980;73.298;2022-12-29T06:12:55;-14.07;83.78
73570;SHT30;61850;54.980;73.298;2022-12-29T06:15:21;-14.04;83.94
73570;SHT30;61850;54.980;73.298;2022-12-29T06:17:49;-13.90;84.07
73570;SHT30;61850;54.980;73.298;2022-12-29T06:20:16;-13.87;83.37
73570;SHT30;61850;54.980;73.298;2022-12-29T06:22:42;-13.86;83.40
73570;SHT30;61850;54.980;73.298;2022-12-29T06:25:09;-13.78;83.59
73570;SHT30;61850;54.980;73.298;2022-12-29T06:27:35;-13.78;83.10
73570;SHT30;61850;54.980;73.298;2022-12-29T06:30:02;-13.78;83.58
73570;SHT30;61850;54.980;73.298;2022-12-29T06:32:28;-13.71;83.57
73570;SHT30;61850;54.980;73.298;2022-12-29T06:34:59;-13.59;83.35
73570;SHT30;61850;54.980;73.298;2022-12-29T06:37:35;-13.50;83.19
73570;SHT30;61850;54.980;73.298;2022-12-29T06:40:03;-13.46;82.98
73570;SHT30;61850;54.980;73.298;2022-12-29T06:42:41;-13.56;83.27
73570;SHT30;61850;54.980;73.298;2022-12-29T06:45:37;-13.59;83.48
73570;SHT30;61850;54.980;73.298;2022-12-29T06:48:10;-13.70;83.16
73570;SHT30;61850;54.980;73.298;2022-12-29T06:50:36;-13.52;83.19
73570;SHT30;61850;54.980;73.298;2022-12-29T06:53:02;-13.38;83.08
73570;SHT30;61850;54.980;73.298;2022-12-29T06:55:27;-13.29;84.57
73570;SHT30;61850;54.980;73.298;2022-12-29T06:57:58;-13.25;85.44
73570;SHT30;61850;54.980;73.298;2022-12-29T07:00:24;-13.14;85.73
73570;SHT30;61850;54.980;73.298;2022-12-29T07:02:50;-13.08;84.69
73570;SHT30;61850;54.980;73.298;2022-12-29T07:05:25;-13.00;84.19
73570;SHT30;61850;54.980;73.298;2022-12-29T07:07:55;-12.98;83.77
73570;SHT30;61850;54.980;73.298;2022-12-29T07:10:31;-12.96;83.58
73570;SHT30;61850;54.980;73.298;2022-12-29T07:13:01;-12.93;82.82
73570;SHT30;61850;54.980;73.298;2022-12-29T07:15:27;-12.88;82.12
73570;SHT30;61850;54.980;73.298;2022-12-29T07:17:56;-12.60;81.35
73570;SHT30;61850;54.980;73.298;2022-12-29T07:20:22;-12.60;80.87
73570;SHT30;61850;54.980;73.298;2022-12-29T07:22:57;-12.56;80.72
73570;SHT30;61850;54.980;73.298;2022-12-29T07:25:28;-12.52;80.23
73570;SHT30;61850;54.980;73.298;2022-12-29T07:27:55;-12.50;80.10
73570;SHT30;61850;54.980;73.298;2022-12-29T07:30:21;-12.60;80.07
73570;SHT30;61850;54.980;73.298;2022-12-29T07:32:48;-12.70;80.41
73570;SHT30;61850;54.980;73.298;2022-12-29T07:35:14;-12.72;80.56
73570;SHT30;61850;54.980;73.298;2022-12-29T07:37:40;-12.69;80.43
73570;SHT30;61850;54.980;73.298;2022-12-29T07:40:07;-12.76;80.66
73570;SHT30;61850;54.980;73.298;2022-12-29T07:42:33;-12.73;80.70
73570;SHT30;61850;54.980;73.298;2022-12-29T07:45:09;-12.69;80.40
73570;SHT30;61850;54.980;73.298;2022-12-29T07:47:55;-12.86;80.51
73570;SHT30;61850;54.980;73.298;2022-12-29T07:50:31;-12.93;80.63
73570;SHT30;61850;54.980;73.298;2022-12-29T07:52:57;-12.97;80.82
73570;SHT30;61850;54.980;73.298;2022-12-29T07:55:27;-12.90;80.66
73570;SHT30;61850;54.980;73.298;2022-12-29T07:57:53;-13.07;80.58
73570;SHT30;61850;54.980;73.298;2022-12-29T08:00:20;-13.18;80.83
73570;SHT30;61850;54.980;73.298;2022-12-29T08:02:47;-13.22;81.23
73570;SHT30;61850;54.980;73.298;2022-12-29T08:05:13;-13.25;81.56
73570;SHT30;61850;54.980;73.298;2022-12-29T08:07:49;-13.27;81.75
73570;SHT30;61850;54.980;73.298;2022-12-29T08:10:15;-13.31;82.04
73570;SHT30;61850;54.980;73.298;2022-12-29T08:12:41;-13.24;82.04
73570;SHT30;61850;54.980;73.298;2022-12-29T08:15:07;-13.19;81.83
73570;SHT30;61850;54.980;73.298;2022-12-29T08:17:34;-13.32;82.29
73570;SHT30;61850;54.980;73.298;2022-12-29T08:19:59;-13.25;82.40
73570;SHT30;61850;54.980;73.298;2022-12-29T08:22:25;-13.12;82.50
73570;SHT30;61850;54.980;73.298;2022-12-29T08:24:51;-13.11;82.38
73570;SHT30;61850;54.980;73.298;2022-12-29T08:27:28;-13.12;82.27
73570;SHT30;61850;54.980;73.298;2022-12-29T08:29:54;-13.12;82.21
73570;SHT30;61850;54.980;73.298;2022-12-29T08:32:20;-13.06;82.06
73570;SHT30;61850;54.980;73.298;2022-12-29T08:34:51;-13.17;82.17
73570;SHT30;61850;54.980;73.298;2022-12-29T08:37:17;-13.19;82.35
73570;SHT30;61850;54.980;73.298;2022-12-29T08:39:44;-13.18;82.23
73570;SHT30;61850;54.980;73.298;2022-12-29T08:42:09;-13.18;82.53
73570;SHT30;61850;54.980;73.298;2022-12-29T08:44:37;-13.17;82.22
73570;SHT30;61850;54.980;73.298;2022-12-29T08:47:03;-13.17;82.25
73570;SHT30;61850;54.980;73.298;2022-12-29T08:49:30;-13.22;82.35
73570;SHT30;61850;54.980;73.298;2022-12-29T08:51:56;-13.32;82.42
73570;SHT30;61850;54.980;73.298;2022-12-29T08:54:22;-13.43;83.01
73570;SHT30;61850;54.980;73.298;2022-12-29T08:56:48;-13.45;83.10
73570;SHT30;61850;54.980;73.298;2022-12-29T08:59:15;-13.45;83.15
73570;SHT30;61850;54.980;73.298;2022-12-29T09:01:43;-13.55;83.04
73570;SHT30;61850;54.980;73.298;2022-12-29T09:04:09;-13.63;83.43
73570;SHT30;61850;54.980;73.298;2022-12-29T09:06:35;-13.70;84.07
73570;SHT30;61850;54.980;73.298;2022-12-29T09:09:01;-13.66;83.76
73570;SHT30;61850;54.980;73.298;2022-12-29T09:11:27;-13.74;83.66
73570;SHT30;61850;54.980;73.298;2022-12-29T09:13:55;-13.83;84.15
73570;SHT30;61850;54.980;73.298;2022-12-29T09:16:22;-13.86;84.15
73570;SHT30;61850;54.980;73.298;2022-12-29T09:18:49;-13.84;84.17
73570;SHT30;61850;54.980;73.298;2022-12-29T09:21:15;-13.95;84.45
73570;SHT30;61850;54.980;73.298;2022-12-29T09:23:41;-13.94;84.49
73570;SHT30;61850;54.980;73.298;2022-12-29T09:26:09;-13.98;84.61
73570;SHT30;61850;54.980;73.298;2022-12-29T09:28:35;-14.00;84.46
73570;SHT30;61850;54.980;73.298;2022-12-29T09:31:07;-13.93;84.43
73570;SHT30;61850;54.980;73.298;2022-12-29T09:33:34;-13.94;84.28
73570;SHT30;61850;54.980;73.298;2022-12-29T09:36:05;-14.04;84.52
73570;SHT30;61850;54.980;73.298;2022-12-29T09:38:32;-14.10;84.31
73570;SHT30;61850;54.980;73.298;2022-12-29T09:41:14;-14.06;84.14
73570;SHT30;61850;54.980;73.298;2022-12-29T09:46:28;-14.08;83.92
73570;SHT30;61850;54.980;73.298;2022-12-29T09:49:15;-14.15;84.35
73570;SHT30;61850;54.980;73.298;2022-12-29T09:51:46;-14.14;84.56
73570;SHT30;61850;54.980;73.298;2022-12-29T09:54:38;-14.17;84.36
73570;SHT30;61850;54.980;73.298;2022-12-29T09:57:14;-14.32;84.10
73570;SHT30;61850;54.980;73.298;2022-12-29T09:59:42;-14.34;84.36
73570;SHT30;61850;54.980;73.298;2022-12-29T10:05:08;-14.38;84.69
73570;SHT30;61850;54.980;73.298;2022-12-29T10:07:52;-14.44;84.84
73570;SHT30;61850;54.980;73.298;2022-12-29T10:10:27;-14.50;84.83
73570;SHT30;61850;54.980;73.298;2022-12-29T10:13:03;-14.53;84.97
73570;SHT30;61850;54.980;73.298;2022-12-29T10:18:40;-14.69;85.73
73570;SHT30;61850;54.980;73.298;2022-12-29T10:21:15;-14.77;86.33
73570;SHT30;61850;54.980;73.298;2022-12-29T10:23:44;-14.72;86.15
73570;SHT30;61850;54.980;73.298;2022-12-29T10:26:23;-14.75;85.96
73570;SHT30;61850;54.980;73.298;2022-12-29T10:29:03;-14.77;86.04
73570;SHT30;61850;54.980;73.298;2022-12-29T10:31:40;-14.79;86.14
73570;SHT30;61850;54.980;73.298;2022-12-29T10:37:11;-14.76;86.24
73570;SHT30;61850;54.980;73.298;2022-12-29T10:39:45;-14.77;86.30
73570;SHT30;61850;54.980;73.298;2022-12-29T10:45:05;-14.83;86.13
73570;SHT30;61850;54.980;73.298;2022-12-29T10:47:37;-14.87;86.22
73570;SHT30;61850;54.980;73.298;2022-12-29T10:50:04;-14.94;86.55
73570;SHT30;61850;54.980;73.298;2022-12-29T10:52:35;-15.00;87.12
73570;SHT30;61850;54.980;73.298;2022-12-29T10:55:15;-15.01;87.17
73570;SHT30;61850;54.980;73.298;2022-12-29T10:57:43;-15.03;86.94
73570;SHT30;61850;54.980;73.298;2022-12-29T11:00:15;-15.00;86.63
73570;SHT30;61850;54.980;73.298;2022-12-29T11:02:48;-15.11;86.50
73570;SHT30;61850;54.980;73.298;2022-12-29T11:07:46;-15.14;86.87
73570;SHT30;61850;54.980;73.298;2022-12-29T11:10:18;-15.17;86.71
73570;SHT30;61850;54.980;73.298;2022-12-29T11:13:04;-15.21;87.14
73570;SHT30;61850;54.980;73.298;2022-12-29T11:15:47;-15.28;87.46
73570;SHT30;61850;54.980;73.298;2022-12-29T11:18:28;-15.29;87.61
73570;SHT30;61850;54.980;73.298;2022-12-29T11:21:01;-15.28;87.40
73570;SHT30;61850;54.980;73.298;2022-12-29T11:23:31;-15.24;87.26
73570;SHT30;61850;54.980;73.298;2022-12-29T11:28:42;-15.28;87.40
73570;SHT30;61850;54.980;73.298;2022-12-29T11:31:13;-15.26;87.40
73570;SHT30;61850;54.980;73.298;2022-12-29T11:33:41;-15.28;87.20
73570;SHT30;61850;54.980;73.298;2022-12-29T11:36:11;-15.32;86.95
73570;SHT30;61850;54.980;73.298;2022-12-29T11:38:53;-15.32;86.91
73570;SHT30;61850;54.980;73.298;2022-12-29T11:41:30;-15.32;86.97
73570;SHT30;61850;54.980;73.298;2022-12-29T11:44:07;-15.31;86.76
73570;SHT30;61850;54.980;73.298;2022-12-29T11:46:44;-15.29;86.58
73570;SHT30;61850;54.980;73.298;2022-12-29T11:49:18;-15.42;86.58
73570;SHT30;61850;54.980;73.298;2022-12-29T11:51:46;-15.46;86.83
73570;SHT30;61850;54.980;73.298;2022-12-29T11:57:12;-15.60;86.63
73570;SHT30;61850;54.980;73.298;2022-12-29T11:59:43;-15.67;85.99
73570;SHT30;61850;54.980;73.298;2022-12-29T12:04:47;-15.78;85.15
73570;SHT30;61850;54.980;73.298;2022-12-29T12:07:15;-15.87;84.76
73570;SHT30;61850;54.980;73.298;2022-12-29T12:09:50;-15.97;84.71
73570;SHT30;61850;54.980;73.298;2022-12-29T12:12:22;-16.02;84.62
73570;SHT30;61850;54.980;73.298;2022-12-29T12:14:54;-16.08;84.88
73570;SHT30;61850;54.980;73.298;2022-12-29T12:20:21;-16.19;85.02
73570;SHT30;61850;54.980;73.298;2022-12-29T12:23:02;-16.25;85.65
73570;SHT30;61850;54.980;73.298;2022-12-29T12:31:05;-16.26;87.01
73570;SHT30;61850;54.980;73.298;2022-12-29T12:33:38;-16.33;87.50
73570;SHT30;61850;54.980;73.298;2022-12-29T12:36:24;-16.35;87.53
73570;SHT30;61850;54.980;73.298;2022-12-29T12:44:18;-16.35;87.58
73570;SHT30;61850;54.980;73.298;2022-12-29T12:46:52;-16.36;86.94
73570;SHT30;61850;54.980;73.298;2022-12-29T13:02:28;-16.46;88.90
73570;SHT30;61850;54.980;73.298;2022-12-29T13:12:41;-16.40;88.29
73570;SHT30;61850;54.980;73.298;2022-12-29T13:21:03;-16.45;89.21
73570;SHT30;61850;54.980;73.298;2022-12-29T13:26:19;-16.49;89.24
73570;SHT30;61850;54.980;73.298;2022-12-29T13:33:58;-16.56;91.51
73570;SHT30;61850;54.980;73.298;2022-12-29T13:36:45;-16.46;91.46
73570;SHT30;61850;54.980;73.298;2022-12-29T13:41:54;-16.50;91.27
73570;SHT30;61850;54.980;73.298;2022-12-29T13:44:40;-16.50;90.87
73570;SHT30;61850;54.980;73.298;2022-12-29T13:49:44;-16.43;90.66
73570;SHT30;61850;54.980;73.298;2022-12-29T13:57:41;-16.29;89.97
73570;SHT30;61850;54.980;73.298;2022-12-29T14:00:22;-16.25;89.31
73570;SHT30;61850;54.980;73.298;2022-12-29T14:07:49;-16.08;89.08
73570;SHT30;61850;54.980;73.298;2022-12-29T14:15:42;-15.99;88.00
73570;SHT30;61850;54.980;73.298;2022-12-29T14:18:19;-15.95;87.64
73570;SHT30;61850;54.980;73.298;2022-12-29T14:26:11;-15.97;87.90
73570;SHT30;61850;54.980;73.298;2022-12-29T14:28:47;-15.99;87.81
73570;SHT30;61850;54.980;73.298;2022-12-29T14:36:37;-16.09;88.12
73570;SHT30;61850;54.980;73.298;2022-12-29T14:42:05;-16.14;88.41
73570;SHT30;61850;54.980;73.298;2022-12-29T14:44:46;-16.16;88.49
73570;SHT30;61850;54.980;73.298;2022-12-29T14:47:20;-16.18;88.51
73570;SHT30;61850;54.980;73.298;2022-12-29T14:50:11;-16.21;88.87
73570;SHT30;61850;54.980;73.298;2022-12-29T14:53:40;-16.21;88.89
73570;SHT30;61850;54.980;73.298;2022-12-29T14:58:14;-16.19;88.93
73570;SHT30;61850;54.980;73.298;2022-12-29T15:00:50;-16.24;90.49
73570;SHT30;61850;54.980;73.298;2022-12-29T15:03:18;-16.16;91.33
73570;SHT30;61850;54.980;73.298;2022-12-29T15:06:08;-16.21;91.78
73570;SHT30;61850;54.980;73.298;2022-12-29T15:08:33;-16.19;91.81
73570;SHT30;61850;54.980;73.298;2022-12-29T15:11:02;-16.14;91.47
73570;SHT30;61850;54.980;73.298;2022-12-29T15:13:33;-16.19;91.12
73570;SHT30;61850;54.980;73.298;2022-12-29T15:16:52;-16.14;91.87
73570;SHT30;61850;54.980;73.298;2022-12-29T15:19:01;-16.14;92.05
73570;SHT30;61850;54.980;73.298;2022-12-29T15:23:54;-16.18;91.92
73570;SHT30;61850;54.980;73.298;2022-12-29T15:26:47;-16.18;91.67
73570;SHT30;61850;54.980;73.298;2022-12-29T15:32:17;-16.07;91.47
73570;SHT30;61850;54.980;73.298;2022-12-29T15:34:47;-15.98;91.15
73570;SHT30;61850;54.980;73.298;2022-12-29T15:37:26;-16.01;90.62
73570;SHT30;61850;54.980;73.298;2022-12-29T15:39:57;-16.25;90.90
73570;SHT30;61850;54.980;73.298;2022-12-29T15:42:46;-16.28;91.31
73570;SHT30;61850;54.980;73.298;2022-12-29T15:45:15;-16.30;91.22
73570;SHT30;61850;54.980;73.298;2022-12-29T15:47:43;-16.30;90.66
73570;SHT30;61850;54.980;73.298;2022-12-29T15:50:20;-16.36;90.43
73570;SHT30;61850;54.980;73.298;2022-12-29T15:52:48;-16.26;89.64
73570;SHT30;61850;54.980;73.298;2022-12-29T15:55:47;-16.38;89.10
73570;SHT30;61850;54.980;73.298;2022-12-29T15:58:24;-16.43;89.83
73570;SHT30;61850;54.980;73.298;2022-12-29T16:00:51;-16.26;89.34
73570;SHT30;61850;54.980;73.298;2022-12-29T16:03:20;-16.36;88.90
73570;SHT30;61850;54.980;73.298;2022-12-29T16:05:58;-16.43;90.54
73570;SHT30;61850;54.980;73.298;2022-12-29T16:08:36;-16.42;91.20
73570;SHT30;61850;54.980;73.298;2022-12-29T16:11:24;-16.49;91.55
73570;SHT30;61850;54.980;73.298;2022-12-29T16:13:57;-16.42;91.40
73570;SHT30;61850;54.980;73.298;2022-12-29T16:16:28;-16.47;91.80
73570;SHT30;61850;54.980;73.298;2022-12-29T16:18:55;-16.42;91.45
73570;SHT30;61850;54.980;73.298;2022-12-29T16:21:31;-16.43;91.27
73570;SHT30;61850;54.980;73.298;2022-12-29T16:24:20;-16.43;91.23
73570;SHT30;61850;54.980;73.298;2022-12-29T16:27:01;-16.47;91.20
73570;SHT30;61850;54.980;73.298;2022-12-29T16:29:28;-16.64;91.32
73570;SHT30;61850;54.980;73.298;2022-12-29T16:31:57;-16.57;90.74
73570;SHT30;61850;54.980;73.298;2022-12-29T16:34:42;-16.57;90.29
73570;SHT30;61850;54.980;73.298;2022-12-29T16:39:51;-16.50;89.65
73570;SHT30;61850;54.980;73.298;2022-12-29T16:42:33;-16.56;90.11
73570;SHT30;61850;54.980;73.298;2022-12-29T16:45:14;-16.63;90.41
73570;SHT30;61850;54.980;73.298;2022-12-29T16:47:49;-16.67;90.22
73570;SHT30;61850;54.980;73.298;2022-12-29T16:50:31;-16.68;90.10
73570;SHT30;61850;54.980;73.298;2022-12-29T16:52:57;-16.67;90.02
73570;SHT30;61850;54.980;73.298;2022-12-29T16:55:24;-16.57;89.59
73570;SHT30;61850;54.980;73.298;2022-12-29T16:58:00;-16.53;89.77
73570;SHT30;61850;54.980;73.298;2022-12-29T17:00:27;-16.55;89.80
73570;SHT30;61850;54.980;73.298;2022-12-29T17:02:57;-16.60;89.94
73570;SHT30;61850;54.980;73.298;2022-12-29T17:05:23;-16.63;90.01
73570;SHT30;61850;54.980;73.298;2022-12-29T17:07:49;-16.55;90.11
73570;SHT30;61850;54.980;73.298;2022-12-29T17:10:26;-16.49;89.60
73570;SHT30;61850;54.980;73.298;2022-12-29T17:13:19;-16.52;89.62
73570;SHT30;61850;54.980;73.298;2022-12-29T17:15:47;-16.52;89.60
73570;SHT30;61850;54.980;73.298;2022-12-29T17:18:12;-16.74;90.05
73570;SHT30;61850;54.980;73.298;2022-12-29T17:20:43;-16.80;89.96
73570;SHT30;61850;54.980;73.298;2022-12-29T17:23:14;-16.66;89.62
73570;SHT30;61850;54.980;73.298;2022-12-29T17:25:45;-16.66;89.75
73570;SHT30;61850;54.980;73.298;2022-12-29T17:28:17;-16.70;89.83
73570;SHT30;61850;54.980;73.298;2022-12-29T17:30:45;-16.63;89.68
73570;SHT30;61850;54.980;73.298;2022-12-29T17:33:13;-16.67;89.67
73570;SHT30;61850;54.980;73.298;2022-12-29T17:35:39;-16.67;89.92
73570;SHT30;61850;54.980;73.298;2022-12-29T17:40:42;-16.66;90.07
73570;SHT30;61850;54.980;73.298;2022-12-29T17:43:08;-16.61;90.17
73570;SHT30;61850;54.980;73.298;2022-12-29T17:45:34;-16.60;90.26
73570;SHT30;61850;54.980;73.298;2022-12-29T17:48:00;-16.60;90.27
73570;SHT30;61850;54.980;73.298;2022-12-29T17:50:27;-16.59;89.91
73570;SHT30;61850;54.980;73.298;2022-12-29T17:53:00;-16.59;89.52
73570;SHT30;61850;54.980;73.298;2022-12-29T17:55:27;-16.63;89.53
73570;SHT30;61850;54.980;73.298;2022-12-29T17:57:55;-16.72;90.37
73570;SHT30;61850;54.980;73.298;2022-12-29T18:00:32;-16.61;90.20
73570;SHT30;61850;54.980;73.298;2022-12-29T18:03:02;-16.63;90.24
73570;SHT30;61850;54.980;73.298;2022-12-29T18:05:29;-16.67;90.52
73570;SHT30;61850;54.980;73.298;2022-12-29T18:07:57;-16.72;91.00
73570;SHT30;61850;54.980;73.298;2022-12-29T18:10:33;-16.59;90.63
73570;SHT30;61850;54.980;73.298;2022-12-29T18:13:00;-16.67;90.71
73570;SHT30;61850;54.980;73.298;2022-12-29T18:15:34;-16.74;90.88
73570;SHT30;61850;54.980;73.298;2022-12-29T18:18:18;-16.90;91.24